| time (UTC) | temp C | wind direction | speed KPH | gust KPH | rain 1hr cm | rain 24hr cm | rain mn cm | humidity % | barometer mb |
| 20260905020002 | 19 | 332 | 8.0 | 17.7 | 0.00 | 0.10 | 0.10 | 88 | 1006.3 |
| 20260905015003 | 19 | 334 | 9.7 | 16.1 | 0.00 | 0.10 | 0.10 | 90 | 1006.0 |
| 20260905014003 | 19 | 326 | 8.0 | 14.5 | 0.00 | 0.10 | 0.10 | 90 | 1006.4 |
| 20260905013003 | 19 | 333 | 6.4 | 9.7 | 0.00 | 0.10 | 0.10 | 91 | 1006.6 |
| 20260905012003 | 18 | 319 | 6.4 | 9.7 | 0.00 | 0.10 | 0.10 | 91 | 1006.6 |
| 20260905011002 | 18 | 324 | 4.8 | 8.0 | 0.00 | 0.10 | 0.10 | 92 | 1006.6 |
| 20260905010024 | 18 | 334 | 4.8 | 9.7 | 0.00 | 0.10 | 0.10 | 91 | 1006.6 |
| 20260905005003 | 18 | 307 | 4.8 | 8.0 | 0.00 | 0.10 | 0.10 | 91 | 1006.7 |
| 20260905004003 | 18 | 319 | 6.4 | 6.4 | 0.00 | 0.10 | 0.10 | 91 | 1006.7 |
| 20260905003003 | 18 | 284 | 3.2 | 4.8 | 0.00 | 0.10 | 0.10 | 91 | 1006.7 |
| 20260905002002 | 18 | 284 | 4.8 | 8.0 | 0.00 | 0.10 | 0.10 | 91 | 1006.5 |
| 20260905000004 | 18 | 316 | 6.4 | 12.9 | 0.00 | 0.10 | 0.10 | 91 | 1006.2 |
| 20260904235003 | 18 | 309 | 9.7 | 17.7 | 0.00 | 0.10 | 0.10 | 92 | 1006.2 |
| 20260904234003 | 18 | 315 | 11.3 | 16.1 | 0.00 | 0.10 | 0.10 | 92 | 1006.0 |
| 20260904233002 | 18 | 278 | 9.7 | 12.9 | 0.00 | 0.10 | 0.10 | 91 | 1006.0 |
| 20260904232003 | 18 | 260 | 6.4 | 12.9 | 0.00 | 0.10 | 0.10 | 91 | 1005.8 |
| 20260904231023 | 18 | 262 | 8.0 | 11.3 | 0.00 | 0.10 | 0.10 | 90 | 1006.0 |
| 20260904230003 | 18 | 227 | 3.2 | 11.3 | 0.00 | 0.10 | 0.10 | 90 | 1006.0 |
| 20260904225003 | 18 | 250 | 4.8 | 6.4 | 0.00 | 0.10 | 0.10 | 89 | 1006.0 |
| 20260904224003 | 19 | 257 | 6.4 | 14.5 | 0.00 | 0.10 | 0.10 | 89 | 1006.1 |
| 20260904223003 | 19 | 260 | 6.4 | 11.3 | 0.00 | 0.10 | 0.10 | 88 | 1006.1 |
| 20260904222002 | 20 | 228 | 4.8 | 8.0 | 0.00 | 0.10 | 0.10 | 87 | 1006.0 |
| 20260904221024 | 20 | 224 | 4.8 | 11.3 | 0.00 | 0.10 | 0.10 | 86 | 1005.8 |
| 20260904220003 | 21 | 220 | 3.2 | 6.4 | 0.00 | 0.10 | 0.10 | 88 | 1005.8 |
| 20260904215002 | 21 | 184 | 4.8 | 6.4 | 0.00 | 0.10 | 0.10 | 88 | 1005.9 |
| 20260904214003 | 20 | 147 | 4.8 | 6.4 | 0.00 | 0.10 | 0.10 | 89 | 1006.0 |
| 20260904213003 | 20 | 92 | 0.0 | 3.2 | 0.00 | 0.10 | 0.10 | 90 | 1006.0 |
| 20260904212003 | 20 | 88 | 1.6 | 6.4 | 0.00 | 0.10 | 0.10 | 90 | 1006.1 |
| 20260904211024 | 20 | 85 | 3.2 | 8.0 | 0.00 | 0.10 | 0.10 | 90 | 1006.2 |
| 20260904210003 | 20 | 31 | 3.2 | 4.8 | 0.10 | 0.10 | 0.10 | 90 | 1006.1 |
| 20260904205003 | 19 | 18 | 4.8 | 19.3 | 0.00 | 0.00 | 0.00 | 89 | 1006.5 |
| 20260904204002 | 20 | 338 | 11.3 | 19.3 | 0.00 | 0.00 | 0.00 | 88 | 1006.2 |
| 20260904203024 | 20 | 251 | 3.2 | 14.5 | 0.00 | 0.00 | 0.00 | 88 | 1005.7 |
| 20260904202024 | 19 | 261 | 4.8 | 17.7 | 0.00 | 0.00 | 0.00 | 89 | 1005.9 |
| 20260904201003 | 20 | 239 | 4.8 | 16.1 | 0.00 | 0.00 | 0.00 | 88 | 1005.6 |
| 20260904200003 | 20 | 251 | 6.4 | 17.7 | 0.00 | 0.00 | 0.00 | 88 | 1005.6 |
| 20260904195024 | 20 | 249 | 6.4 | 16.1 | 0.00 | 0.00 | 0.00 | 90 | 1005.9 |
| 20260904194002 | 19 | 245 | 4.8 | 11.3 | 0.00 | 0.00 | 0.00 | 90 | 1006.0 |
| 20260904193024 | 19 | 240 | 8.0 | 16.1 | 0.00 | 0.00 | 0.00 | 91 | 1006.3 |
| 20260904192003 | 18 | 261 | 12.9 | 19.3 | 0.00 | 0.00 | 0.00 | 90 | 1006.2 |
| 20260904191002 | 18 | 259 | 12.9 | 20.9 | 0.00 | 0.00 | 0.00 | 90 | 1006.0 |
| 20260904190004 | 18 | 274 | 9.7 | 16.1 | 0.00 | 0.00 | 0.00 | 89 | 1006.1 |
| 20260904185002 | 19 | 238 | 4.8 | 12.9 | 0.00 | 0.00 | 0.00 | 88 | 1006.2 |
| 20260904184003 | 20 | 230 | 6.4 | 12.9 | 0.00 | 0.00 | 0.00 | 89 | 1006.3 |
| 20260904183003 | 20 | 235 | 3.2 | 14.5 | 0.00 | 0.00 | 0.00 | 90 | 1006.3 |
| 20260904182002 | 20 | 233 | 8.0 | 14.5 | 0.00 | 0.00 | 0.00 | 89 | 1006.4 |
| 20260904181003 | 20 | 217 | 6.4 | 14.5 | 0.00 | 0.00 | 0.00 | 89 | 1006.3 |
| 20260904180003 | 20 | 223 | 8.0 | 12.9 | 0.00 | 0.00 | 0.00 | 90 | 1006.5 |
| 20260904175003 | 20 | 232 | 4.8 | 6.4 | 0.00 | 0.00 | 0.00 | 90 | 1006.7 |
| 20260904174003 | 20 | 230 | 6.4 | 12.9 | 0.00 | 0.00 | 0.00 | 88 | 1006.7 |
| 20260904173024 | 20 | 235 | 6.4 | 12.9 | 0.00 | 0.00 | 0.00 | 89 | 1006.8 |
| 20260904172003 | 20 | 226 | 8.0 | 16.1 | 0.00 | 0.00 | 0.00 | 89 | 1006.8 |
| 20260904171002 | 21 | 225 | 9.7 | 14.5 | 0.00 | 0.00 | 0.00 | 88 | 1006.8 |
| 20260904170003 | 21 | 220 | 6.4 | 11.3 | 0.00 | 0.00 | 0.00 | 90 | 1007.1 |
| 20260904165024 | 21 | 216 | 4.8 | 8.0 | 0.00 | 0.00 | 0.00 | 90 | 1007.0 |
| 20260904164023 | 20 | 204 | 6.4 | 11.3 | 0.00 | 0.00 | 0.00 | 91 | 1007.1 |
| 20260904163003 | 20 | 190 | 8.0 | 12.9 | 0.00 | 0.00 | 0.00 | 91 | 1007.1 |
| 20260904162002 | 20 | 195 | 8.0 | 9.7 | 0.00 | 0.00 | 0.00 | 92 | 1007.3 |
| 20260904161024 | 20 | 183 | 6.4 | 9.7 | 0.00 | 0.00 | 0.00 | 92 | 1007.5 |
| 20260904160003 | 20 | 182 | 6.4 | 8.0 | 0.00 | 0.00 | 0.00 | 92 | 1007.5 |
| 20260904155003 | 20 | 141 | 3.2 | 8.0 | 0.00 | 0.00 | 0.00 | 93 | 1007.4 |
| 20260904154003 | 20 | 156 | 4.8 | 8.0 | 0.00 | 0.00 | 0.00 | 94 | 1007.6 |
| 20260904153003 | 20 | 203 | 8.0 | 12.9 | 0.00 | 0.00 | 0.00 | 94 | 1007.8 |
| 20260904152002 | 19 | 152 | 8.0 | 12.9 | 0.00 | 0.00 | 0.00 | 95 | 1007.8 |
| 20260904151024 | 19 | 121 | 11.3 | 12.9 | 0.00 | 0.00 | 0.00 | 95 | 1007.8 |
| 20260904150003 | 19 | 108 | 3.2 | 6.4 | 0.00 | 0.00 | 0.00 | 96 | 1007.9 |
| 20260904145002 | 18 | 291 | 8.0 | 12.9 | 0.00 | 0.00 | 0.00 | 96 | 1008.0 |
| 20260904144024 | 18 | 325 | 8.0 | 14.5 | 0.00 | 0.00 | 0.00 | 96 | 1008.0 |
| 20260904143002 | 18 | 324 | 11.3 | 16.1 | 0.00 | 0.00 | 0.00 | 96 | 1008.0 |
| 20260904142003 | 18 | 281 | 8.0 | 14.5 | 0.00 | 0.00 | 0.00 | 96 | 1008.1 |
| 20260904141024 | 18 | 295 | 8.0 | 12.9 | 0.00 | 0.03 | 0.00 | 96 | 1008.2 |
| 20260904140002 | 18 | 319 | 8.0 | 14.5 | 0.00 | 0.03 | 0.00 | 96 | 1008.2 |
| 20260904135003 | 18 | 322 | 4.8 | 12.9 | 0.00 | 0.03 | 0.00 | 96 | 1008.3 |
| 20260904134003 | 17 | 329 | 6.4 | 17.7 | 0.00 | 0.03 | 0.00 | 96 | 1008.3 |
| 20260904133002 | 17 | 304 | 9.7 | 16.1 | 0.00 | 0.03 | 0.00 | 96 | 1008.2 |
| 20260904132003 | 17 | 311 | 8.0 | 16.1 | 0.00 | 0.05 | 0.00 | 96 | 1008.3 |
| 20260904131003 | 17 | 292 | 6.4 | 12.9 | 0.00 | 0.08 | 0.00 | 96 | 1008.2 |
| 20260904130003 | 17 | 346 | 4.8 | 12.9 | 0.00 | 0.08 | 0.00 | 96 | 1008.2 |
| 20260904125003 | 17 | 301 | 6.4 | 12.9 | 0.00 | 0.08 | 0.00 | 96 | 1008.2 |
| 20260904124002 | 17 | 296 | 6.4 | 12.9 | 0.00 | 0.08 | 0.00 | 96 | 1008.3 |
| 20260904123003 | 17 | 306 | 6.4 | 11.3 | 0.00 | 0.08 | 0.00 | 96 | 1008.3 |
| 20260904122002 | 17 | 292 | 3.2 | 11.3 | 0.00 | 0.08 | 0.00 | 96 | 1008.3 |
| 20260904121003 | 17 | 278 | 6.4 | 11.3 | 0.00 | 0.08 | 0.00 | 96 | 1008.3 |
| 20260904120003 | 17 | 258 | 4.8 | 11.3 | 0.00 | 0.08 | 0.00 | 96 | 1008.3 |
| 20260904115002 | 17 | 255 | 4.8 | 11.3 | 0.00 | 0.08 | 0.00 | 96 | 1008.3 |
| 20260904114003 | 17 | 259 | 6.4 | 9.7 | 0.00 | 0.08 | 0.00 | 96 | 1008.3 |
| 20260904113002 | 16 | 248 | 1.6 | 9.7 | 0.00 | 0.10 | 0.00 | 96 | 1008.3 |
| 20260904112024 | 16 | 235 | 1.6 | 6.4 | 0.00 | 0.10 | 0.00 | 96 | 1008.3 |
| 20260904111004 | 16 | 259 | 3.2 | 6.4 | 0.00 | 0.15 | 0.00 | 96 | 1008.1 |
| 20260904110002 | 16 | 255 | 3.2 | 11.3 | 0.00 | 0.15 | 0.00 | 96 | 1008.1 |
| 20260904105003 | 16 | 262 | 4.8 | 12.9 | 0.00 | 0.15 | 0.00 | 96 | 1007.9 |
| 20260904104003 | 16 | 264 | 6.4 | 11.3 | 0.00 | 0.15 | 0.00 | 96 | 1007.8 |
| 20260904103003 | 16 | 267 | 8.0 | 12.9 | 0.00 | 0.15 | 0.00 | 96 | 1007.8 |
| 20260904102003 | 16 | 270 | 9.7 | 14.5 | 0.00 | 0.15 | 0.00 | 96 | 1007.8 |
| 20260904101003 | 16 | 289 | 3.2 | 4.8 | 0.00 | 0.15 | 0.00 | 96 | 1007.9 |
| 20260904100003 | 16 | 292 | 1.6 | 3.2 | 0.00 | 0.15 | 0.00 | 96 | 1008.0 |
| 20260904095003 | 16 | 292 | 0.0 | 3.2 | 0.00 | 0.15 | 0.00 | 96 | 1008.0 |
| 20260904094002 | 16 | 292 | 0.0 | 0.0 | 0.00 | 0.15 | 0.00 | 96 | 1007.8 |
| 20260904093003 | 16 | 292 | 0.0 | 0.0 | 0.00 | 0.15 | 0.00 | 96 | 1007.7 |
| 20260904092002 | 16 | 292 | 0.0 | 0.0 | 0.00 | 0.15 | 0.00 | 96 | 1007.6 |
| 20260904091004 | 16 | 292 | 0.0 | 0.0 | 0.00 | 0.15 | 0.00 | 96 | 1007.7 |
| 20260904090003 | 16 | 292 | 0.0 | 4.8 | 0.00 | 0.15 | 0.00 | 96 | 1007.7 |
| 20260904085002 | 16 | 291 | 3.2 | 4.8 | 0.00 | 0.15 | 0.00 | 96 | 1007.7 |
| 20260904084003 | 16 | 289 | 3.2 | 11.3 | 0.00 | 0.15 | 0.00 | 96 | 1007.9 |
| 20260904083003 | 16 | 297 | 6.4 | 9.7 | 0.00 | 0.15 | 0.00 | 96 | 1007.9 |
| 20260904082003 | 16 | 286 | 0.0 | 0.0 | 0.00 | 0.15 | 0.00 | 96 | 1007.9 |
| 20260904081004 | 16 | 286 | 0.0 | 6.4 | 0.00 | 0.15 | 0.00 | 95 | 1007.6 |
| 20260904080002 | 16 | 273 | 3.2 | 11.3 | 0.00 | 0.15 | 0.00 | 95 | 1007.7 |
| 20260904075003 | 16 | 293 | 6.4 | 8.0 | 0.00 | 0.15 | 0.00 | 96 | 1007.8 |
| 20260904074003 | 16 | 304 | 4.8 | 6.4 | 0.00 | 0.15 | 0.00 | 95 | 1007.9 |
| 20260904073003 | 16 | 287 | 3.2 | 6.4 | 0.00 | 0.15 | 0.00 | 95 | 1008.0 |
| 20260904072003 | 16 | 268 | 3.2 | 6.4 | 0.00 | 0.15 | 0.00 | 95 | 1008.2 |
| 20260904071003 | 16 | 256 | 3.2 | 9.7 | 0.00 | 0.15 | 0.00 | 95 | 1008.3 |
| 20260904070003 | 16 | 261 | 4.8 | 9.7 | 0.00 | 0.15 | 0.00 | 96 | 1008.3 |
| 20260904065003 | 16 | 227 | 1.6 | 6.4 | 0.00 | 0.15 | 0.00 | 95 | 1008.4 |
| 20260904064002 | 16 | 312 | 0.0 | 3.2 | 0.00 | 0.15 | 0.00 | 95 | 1008.5 |
| 20260904063003 | 16 | 312 | 1.6 | 8.0 | 0.00 | 0.15 | 0.00 | 95 | 1008.5 |
| 20260904062024 | 16 | 312 | 4.8 | 8.0 | 0.00 | 0.15 | 0.00 | 95 | 1008.5 |
| 20260904061003 | 16 | 274 | 6.4 | 12.9 | 0.00 | 0.15 | 0.00 | 95 | 1008.8 |
| 20260904060003 | 16 | 268 | 6.4 | 11.3 | 0.00 | 0.15 | 0.00 | 95 | 1009.0 |
| 20260904055002 | 16 | 259 | 4.8 | 12.9 | 0.00 | 0.15 | 0.00 | 95 | 1009.2 |
| 20260904054003 | 16 | 254 | 4.8 | 11.3 | 0.00 | 0.15 | 0.00 | 95 | 1009.3 |
| 20260904053003 | 16 | 278 | 6.4 | 8.0 | 0.00 | 0.15 | 0.00 | 95 | 1009.1 |
| 20260904052003 | 16 | 268 | 1.6 | 9.7 | 0.00 | 0.15 | 0.00 | 95 | 1009.1 |
| 20260904051003 | 16 | 265 | 4.8 | 9.7 | 0.00 | 0.15 | 0.00 | 95 | 1009.4 |
| 20260904050002 | 17 | 252 | 4.8 | 9.7 | 0.00 | 0.15 | 0.00 | 95 | 1009.5 |
| 20260904045003 | 16 | 268 | 6.4 | 9.7 | 0.00 | 0.15 | 0.00 | 95 | 1009.7 |
| 20260904044024 | 16 | 320 | 4.8 | 6.4 | 0.00 | 0.15 | 0.00 | 95 | 1009.5 |
| 20260904043045 | 17 | 320 | 0.0 | 6.4 | 0.00 | 0.15 | 0.00 | 95 | 1009.5 |
| 20260904042002 | 17 | 320 | 1.6 | 6.4 | 0.00 | 0.15 | 0.00 | 95 | 1009.5 |
| 20260904040004 | 17 | 292 | 0.0 | 0.0 | 0.00 | 0.15 | 0.15 | 95 | 1009.9 |
| 20260904035003 | 16 | 292 | 0.0 | 3.2 | 0.00 | 0.15 | 0.15 | 95 | 1010.1 |
| 20260904034003 | 16 | 291 | 0.0 | 3.2 | 0.00 | 0.15 | 0.15 | 95 | 1010.0 |
| 20260904033003 | 16 | 291 | 1.6 | 3.2 | 0.00 | 0.15 | 0.15 | 95 | 1010.2 |
| 20260904032023 | 16 | 291 | 1.6 | 4.8 | 0.00 | 0.15 | 0.15 | 95 | 1010.2 |
| 20260904031003 | 16 | 352 | 0.0 | 4.8 | 0.00 | 0.15 | 0.15 | 95 | 1010.0 |
| 20260904030002 | 16 | 351 | 0.0 | 6.4 | 0.00 | 0.15 | 0.15 | 95 | 1010.1 |
| 20260904025003 | 16 | 340 | 4.8 | 9.7 | 0.00 | 0.15 | 0.15 | 95 | 1010.3 |
| 20260904024004 | 16 | 311 | 6.4 | 14.5 | 0.00 | 0.15 | 0.15 | 95 | 1010.2 |
| 20260904023003 | 16 | 310 | 4.8 | 8.0 | 0.00 | 0.15 | 0.15 | 95 | 1010.2 |
| 20260904022003 | 16 | 307 | 4.8 | 8.0 | 0.00 | 0.15 | 0.15 | 95 | 1010.0 |
| 20260904021003 | 16 | 293 | 4.8 | 8.0 | 0.00 | 0.15 | 0.15 | 95 | 1010.3 |